createdAt,value
2023-02-16T00:00:24.466Z,1.80
2023-02-16T00:02:52.052Z,1.80
2023-02-16T00:05:35.132Z,1.70
2023-02-16T00:08:03.312Z,1.70
2023-02-16T00:10:34.474Z,1.70
2023-02-16T00:13:21.067Z,1.60
2023-02-16T00:15:48.163Z,1.60
2023-02-16T00:18:19.051Z,1.60
2023-02-16T00:20:47.341Z,1.60
2023-02-16T00:23:14.586Z,1.60
2023-02-16T00:25:41.735Z,1.60
2023-02-16T00:28:16.016Z,1.60
2023-02-16T00:30:43.102Z,1.60
2023-02-16T00:33:21.736Z,1.60
2023-02-16T00:35:49.816Z,1.50
2023-02-16T00:38:16.966Z,1.60
2023-02-16T00:40:44.323Z,1.60
2023-02-16T00:43:29.182Z,1.70
2023-02-16T00:45:57.496Z,1.60
2023-02-16T00:48:25.019Z,1.70
2023-02-16T00:50:52.058Z,1.70
2023-02-16T00:53:19.229Z,1.60
2023-02-16T00:55:46.518Z,1.50
2023-02-16T00:58:26.523Z,1.50
2023-02-16T01:01:03.004Z,1.50
2023-02-16T01:03:30.227Z,1.50
2023-02-16T01:06:16.221Z,1.40
2023-02-16T01:09:02.035Z,1.40
2023-02-16T01:11:29.729Z,1.40
2023-02-16T01:13:57.534Z,1.40
2023-02-16T01:16:37.935Z,1.40
2023-02-16T01:19:05.684Z,1.40
2023-02-16T01:21:33.094Z,1.40
2023-02-16T01:24:00.785Z,1.40
2023-02-16T01:26:27.919Z,1.40
2023-02-16T01:28:54.735Z,1.30
2023-02-16T01:31:21.831Z,1.30
2023-02-16T01:33:48.981Z,1.40
2023-02-16T01:36:22.132Z,1.30
2023-02-16T01:38:49.021Z,1.30
2023-02-16T01:41:31.626Z,1.20
2023-02-16T01:44:23.863Z,1.20
2023-02-16T01:46:59.868Z,1.20
2023-02-16T01:49:28.020Z,1.30
2023-02-16T01:52:27.309Z,1.20
2023-02-16T01:55:00.749Z,1.10
2023-02-16T01:57:38.208Z,1.20
2023-02-16T02:00:13.012Z,1.20
2023-02-16T02:02:44.256Z,1.30
2023-02-16T02:05:53.571Z,1.30
2023-02-16T02:08:51.466Z,1.30
2023-02-16T02:11:52.383Z,1.20
2023-02-16T02:14:33.132Z,1.30
2023-02-16T02:17:05.610Z,1.30
2023-02-16T02:19:46.042Z,1.30
2023-02-16T02:22:31.770Z,1.20
2023-02-16T02:25:11.022Z,1.20
2023-02-16T02:28:15.195Z,1.30
2023-02-16T02:30:53.865Z,1.20
2023-02-16T02:33:26.646Z,1.30
2023-02-16T02:36:07.014Z,1.20
2023-02-16T02:39:00.310Z,1.30
2023-02-16T02:41:49.893Z,1.20
2023-02-16T02:44:21.558Z,1.20
2023-02-16T02:46:49.168Z,1.20
2023-02-16T02:49:16.345Z,1.20
2023-02-16T02:51:43.257Z,1.20
2023-02-16T02:54:39.094Z,1.20
2023-02-16T02:57:34.684Z,1.20
2023-02-16T03:00:40.163Z,1.20
2023-02-16T03:03:14.001Z,1.20
2023-02-16T03:05:46.414Z,1.20
2023-02-16T03:08:17.651Z,1.20
2023-02-16T03:11:22.526Z,1.20
2023-02-16T03:13:55.675Z,1.20
2023-02-16T03:16:43.465Z,1.20
2023-02-16T03:19:32.524Z,1.30
2023-02-16T03:22:18.700Z,1.30
2023-02-16T03:25:04.870Z,1.20
2023-02-16T03:27:55.520Z,1.20
2023-02-16T03:30:24.430Z,1.20
2023-02-16T03:32:52.449Z,1.10
2023-02-16T03:35:19.698Z,1.00
2023-02-16T03:37:48.221Z,1.00
2023-02-16T03:40:30.272Z,1.10
2023-02-16T03:43:01.229Z,1.10
2023-02-16T03:45:29.154Z,1.10
2023-02-16T03:47:59.144Z,1.10
2023-02-16T03:50:27.191Z,1.20
2023-02-16T03:53:18.250Z,1.20
2023-02-16T03:55:47.414Z,1.20
2023-02-16T03:58:17.720Z,1.20
2023-02-16T04:00:44.874Z,1.20
2023-02-16T04:03:12.324Z,1.30
2023-02-16T04:05:39.969Z,1.20
2023-02-16T04:08:08.142Z,1.20
2023-02-16T04:10:35.422Z,1.20
2023-02-16T04:13:02.307Z,1.10
2023-02-16T04:15:30.606Z,1.10
2023-02-16T04:17:57.788Z,1.10
2023-02-16T04:20:27.983Z,1.10
2023-02-16T04:22:55.210Z,1.00
2023-02-16T04:25:22.338Z,1.10
2023-02-16T04:27:50.637Z,1.00
2023-02-16T04:30:20.258Z,1.00
2023-02-16T04:32:47.301Z,1.00
2023-02-16T04:35:14.662Z,0.90
2023-02-16T04:37:41.861Z,0.80
2023-02-16T04:40:11.092Z,0.80
2023-02-16T04:42:38.077Z,0.90
2023-02-16T04:45:05.118Z,0.90
2023-02-16T04:47:32.025Z,0.90
2023-02-16T04:49:59.316Z,0.90
2023-02-16T04:52:26.076Z,1.00
2023-02-16T04:54:52.968Z,0.90
2023-02-16T04:57:21.430Z,0.90
2023-02-16T04:59:48.229Z,0.90
2023-02-16T05:02:15.165Z,0.90
2023-02-16T05:04:42.407Z,0.90
2023-02-16T05:07:10.302Z,0.90
2023-02-16T05:09:37.122Z,1.00
2023-02-16T05:12:22.758Z,1.00
2023-02-16T05:14:50.016Z,1.10
2023-02-16T05:17:18.347Z,1.00
2023-02-16T05:19:51.022Z,1.00
2023-02-16T05:22:19.441Z,1.00
2023-02-16T05:24:46.612Z,1.00
2023-02-16T05:27:22.328Z,1.00
2023-02-16T05:29:49.675Z,1.10
2023-02-16T05:32:17.198Z,0.90
2023-02-16T05:34:45.621Z,0.90
2023-02-16T05:37:14.512Z,0.90
2023-02-16T05:39:41.588Z,0.80
2023-02-16T05:42:08.953Z,0.80
2023-02-16T05:44:36.750Z,0.80
2023-02-16T05:47:04.152Z,0.80
2023-02-16T05:49:31.200Z,0.80
2023-02-16T05:51:58.234Z,0.70
2023-02-16T05:54:25.207Z,0.80
2023-02-16T05:56:52.675Z,0.80
2023-02-16T05:59:19.959Z,0.90
2023-02-16T06:01:51.253Z,0.80
2023-02-16T06:04:20.585Z,0.70
2023-02-16T06:06:47.889Z,0.70
2023-02-16T06:09:15.084Z,0.70
2023-02-16T06:11:42.667Z,0.80
2023-02-16T06:14:13.215Z,0.80
2023-02-16T06:16:42.224Z,0.70
2023-02-16T06:19:09.974Z,0.60
2023-02-16T06:21:37.832Z,0.70
2023-02-16T06:24:05.863Z,0.60
2023-02-16T06:26:32.841Z,0.70
2023-02-16T06:28:59.843Z,0.70
2023-02-16T06:31:27.453Z,0.70
2023-02-16T06:33:56.951Z,0.70
2023-02-16T06:36:24.716Z,0.70
2023-02-16T06:38:51.826Z,0.80
2023-02-16T06:41:31.519Z,0.80
2023-02-16T06:44:00.650Z,0.70
2023-02-16T06:46:28.362Z,0.80
2023-02-16T06:48:55.429Z,0.70
2023-02-16T06:51:22.278Z,0.60
2023-02-16T06:53:49.469Z,0.50
2023-02-16T06:56:16.433Z,0.60
2023-02-16T06:58:43.597Z,0.60
2023-02-16T07:01:10.488Z,0.60
2023-02-16T07:03:37.446Z,0.60
2023-02-16T07:06:04.638Z,0.60
2023-02-16T07:08:31.853Z,0.70
2023-02-16T07:10:58.685Z,0.70
2023-02-16T07:13:25.552Z,0.80
2023-02-16T07:15:52.479Z,0.80
2023-02-16T07:18:19.759Z,0.90
2023-02-16T07:20:47.709Z,0.90
2023-02-16T07:23:14.502Z,0.80
2023-02-16T07:25:41.288Z,0.80
2023-02-16T07:28:08.121Z,0.80
2023-02-16T07:30:36.384Z,0.90
2023-02-16T07:33:04.253Z,0.90
2023-02-16T07:35:31.115Z,0.90
2023-02-16T07:37:58.075Z,0.90
2023-02-16T07:40:25.198Z,1.00
2023-02-16T07:42:51.984Z,1.00
2023-02-16T07:45:18.983Z,1.10
2023-02-16T07:47:45.871Z,1.00
2023-02-16T07:50:12.941Z,0.90
2023-02-16T07:52:39.882Z,0.80
2023-02-16T07:55:06.923Z,0.80
2023-02-16T07:57:33.736Z,0.80
2023-02-16T08:00:00.616Z,0.80
2023-02-16T08:02:27.706Z,0.80
2023-02-16T08:04:54.689Z,0.90
2023-02-16T08:07:21.799Z,0.70
2023-02-16T08:09:49.811Z,0.80
2023-02-16T08:12:17.063Z,0.80
2023-02-16T08:14:44.765Z,0.90
2023-02-16T08:17:11.660Z,1.00
2023-02-16T08:19:38.620Z,1.10
2023-02-16T08:22:06.608Z,1.10
2023-02-16T08:24:34.280Z,1.10
2023-02-16T08:27:03.942Z,1.20
2023-02-16T08:29:31.929Z,1.20
2023-02-16T08:31:59.513Z,1.20
2023-02-16T08:34:26.704Z,1.30
2023-02-16T08:36:56.810Z,1.30
2023-02-16T08:39:26.435Z,1.10
2023-02-16T08:41:54.163Z,1.10
2023-02-16T08:44:23.871Z,1.00
2023-02-16T08:46:55.522Z,1.10
2023-02-16T08:49:24.111Z,1.20
2023-02-16T08:51:54.606Z,1.30
2023-02-16T08:54:30.580Z,1.40
2023-02-16T08:56:59.724Z,1.50
2023-02-16T08:59:28.799Z,1.50
2023-02-16T09:01:58.220Z,1.40
2023-02-16T09:04:25.702Z,1.40
2023-02-16T09:06:53.512Z,1.30
2023-02-16T09:09:20.780Z,1.20
2023-02-16T09:11:48.757Z,1.40
2023-02-16T09:14:18.569Z,1.40
2023-02-16T09:16:46.052Z,1.40
2023-02-16T09:19:15.404Z,1.50
2023-02-16T09:21:42.861Z,1.70
2023-02-16T09:24:11.617Z,1.70
2023-02-16T09:26:42.474Z,1.80
2023-02-16T09:29:10.971Z,1.80
2023-02-16T09:31:39.695Z,1.70
2023-02-16T09:34:17.893Z,1.60
2023-02-16T09:36:45.798Z,1.70
2023-02-16T09:39:13.045Z,1.70
2023-02-16T09:42:29.736Z,2.00
2023-02-16T09:45:11.942Z,2.10
2023-02-16T09:47:43.158Z,2.30
2023-02-16T09:50:16.261Z,2.50
2023-02-16T09:52:53.416Z,2.40
2023-02-16T09:55:22.517Z,2.60
2023-02-16T09:58:01.452Z,2.80
2023-02-16T10:00:43.308Z,3.00
2023-02-16T10:03:47.481Z,3.00
2023-02-16T10:06:14.314Z,3.00
2023-02-16T10:08:51.489Z,3.10
2023-02-16T10:11:38.418Z,3.20
2023-02-16T10:14:31.025Z,3.30
2023-02-16T10:17:11.289Z,3.40
2023-02-16T10:19:54.663Z,3.50
2023-02-16T10:22:38.980Z,3.40
2023-02-16T10:25:10.229Z,3.50
2023-02-16T10:27:47.707Z,3.50
2023-02-16T10:30:18.477Z,3.50
2023-02-16T10:32:59.639Z,3.60
2023-02-16T10:35:48.272Z,3.60
2023-02-16T10:38:27.450Z,3.40
2023-02-16T10:41:34.841Z,3.50
2023-02-16T10:44:11.215Z,3.30
2023-02-16T10:46:45.444Z,3.50
2023-02-16T10:49:14.635Z,3.40
2023-02-16T10:51:50.245Z,3.50
2023-02-16T10:54:22.490Z,3.80
2023-02-16T10:56:54.346Z,3.90
2023-02-16T10:59:22.893Z,4.00
2023-02-16T11:01:57.634Z,4.00
2023-02-16T11:04:33.659Z,4.00
2023-02-16T11:07:14.326Z,4.00
2023-02-16T11:09:43.054Z,4.20
2023-02-16T11:12:35.374Z,4.30
2023-02-16T11:15:06.241Z,4.50
2023-02-16T11:17:49.101Z,4.70
2023-02-16T11:20:29.719Z,4.80
2023-02-16T11:23:22.973Z,4.70
2023-02-16T11:25:58.500Z,4.60
2023-02-16T11:28:34.886Z,4.50
2023-02-16T11:31:40.317Z,4.40
2023-02-16T11:34:35.870Z,4.40
2023-02-16T11:37:05.713Z,4.50
2023-02-16T11:39:37.848Z,4.60
2023-02-16T11:42:23.283Z,4.60
2023-02-16T11:44:56.346Z,4.70
2023-02-16T11:47:29.805Z,4.90
2023-02-16T11:50:28.631Z,4.90
2023-02-16T11:53:22.870Z,4.80
2023-02-16T11:55:51.261Z,4.80
2023-02-16T11:58:18.088Z,5.00
2023-02-16T12:01:16.701Z,5.10
2023-02-16T12:04:22.277Z,5.00
2023-02-16T12:07:20.263Z,5.10
2023-02-16T12:10:13.142Z,5.00
2023-02-16T12:13:08.778Z,5.50
2023-02-16T12:16:02.157Z,5.70
2023-02-16T12:18:48.110Z,5.90
2023-02-16T12:21:33.005Z,6.00
2023-02-16T12:24:47.970Z,5.90
2023-02-16T12:27:37.577Z,6.30
2023-02-16T12:30:29.338Z,6.60
2023-02-16T12:33:13.860Z,7.00
2023-02-16T12:36:06.674Z,7.10
2023-02-16T12:39:02.221Z,6.80
2023-02-16T12:42:01.090Z,6.50
2023-02-16T12:44:37.463Z,6.30
2023-02-16T12:47:16.265Z,6.40
2023-02-16T12:50:03.799Z,6.70
2023-02-16T12:52:49.753Z,6.90
2023-02-16T12:55:26.529Z,6.70
2023-02-16T12:58:10.007Z,6.50
2023-02-16T13:00:52.967Z,6.60
2023-02-16T13:04:10.992Z,6.50
2023-02-16T13:06:57.919Z,6.50
2023-02-16T13:09:36.510Z,6.50
2023-02-16T13:12:26.026Z,6.50
2023-02-16T13:51:44.758Z,6.60
2023-02-16T13:54:30.615Z,6.90
2023-02-16T13:56:57.737Z,6.90
2023-02-16T13:59:24.560Z,6.90
2023-02-16T14:01:54.457Z,6.80
2023-02-16T14:04:24.721Z,6.70
2023-02-16T14:07:03.850Z,6.70
2023-02-16T14:09:45.831Z,6.70
2023-02-16T14:12:20.106Z,6.80
2023-02-16T14:14:57.835Z,7.00
2023-02-16T14:17:28.077Z,6.90
2023-02-16T14:20:09.337Z,7.00
2023-02-16T14:22:54.183Z,7.10
2023-02-16T14:25:23.833Z,7.00
2023-02-16T14:28:02.904Z,6.80
2023-02-16T14:30:38.835Z,6.70
2023-02-16T14:33:17.654Z,6.70
2023-02-16T14:36:00.152Z,6.60
2023-02-16T14:38:47.676Z,6.70
2023-02-16T14:41:24.915Z,6.50
2023-02-16T14:43:56.646Z,6.50
2023-02-16T14:46:38.464Z,6.40
2023-02-16T14:49:14.947Z,6.40
2023-02-16T14:52:09.423Z,6.40
2023-02-16T14:55:01.836Z,6.20
2023-02-16T14:57:34.963Z,6.00
2023-02-16T15:00:19.834Z,6.00
2023-02-16T15:03:21.103Z,5.90
2023-02-16T15:06:02.566Z,5.80
2023-02-16T15:08:35.796Z,5.60
2023-02-16T15:11:34.075Z,5.60
2023-02-16T15:14:08.943Z,5.40
2023-02-16T15:16:40.520Z,5.40
2023-02-16T15:19:22.877Z,5.40
2023-02-16T15:22:27.629Z,5.40
2023-02-16T15:24:58.615Z,5.40
2023-02-16T15:27:26.305Z,5.30
2023-02-16T15:30:06.143Z,5.20
2023-02-16T15:32:33.430Z,5.30
2023-02-16T15:35:13.561Z,5.20
2023-02-16T15:37:41.701Z,5.20
2023-02-16T15:40:26.139Z,5.20
2023-02-16T15:42:54.945Z,5.20
2023-02-16T15:45:37.742Z,5.20
2023-02-16T15:48:36.766Z,5.20
2023-02-16T15:51:09.006Z,5.20
2023-02-16T15:53:57.530Z,5.20
2023-02-16T15:56:38.869Z,5.20
2023-02-16T15:59:36.922Z,5.10
2023-02-16T16:02:07.182Z,5.20
2023-02-16T16:04:38.826Z,5.10
2023-02-16T16:07:08.447Z,5.10
2023-02-16T16:09:36.673Z,5.20
2023-02-16T16:12:06.942Z,5.20
2023-02-16T16:14:38.951Z,5.30
2023-02-16T16:17:09.017Z,5.20
2023-02-16T16:19:38.228Z,5.30
2023-02-16T16:22:29.358Z,5.30
2023-02-16T16:24:56.637Z,5.30
2023-02-16T16:27:36.718Z,5.40
2023-02-16T16:30:20.625Z,5.30
2023-02-16T16:32:47.722Z,5.30
2023-02-16T16:35:44.082Z,5.40
2023-02-16T16:38:28.639Z,5.40
2023-02-16T16:40:58.973Z,5.40
2023-02-16T16:43:30.393Z,5.40
2023-02-16T16:46:23.507Z,5.50
2023-02-16T16:48:55.037Z,5.50
2023-02-16T16:51:40.165Z,5.40
2023-02-16T16:54:31.522Z,5.50
2023-02-16T16:56:58.394Z,5.50
2023-02-16T16:59:25.283Z,5.40
2023-02-16T17:01:52.974Z,5.40
2023-02-16T17:04:22.116Z,5.30
2023-02-16T17:06:49.198Z,5.20
2023-02-16T17:09:16.954Z,5.10
2023-02-16T17:11:43.896Z,5.00
2023-02-16T17:14:14.770Z,4.90
2023-02-16T17:16:45.134Z,4.80
2023-02-16T17:19:16.804Z,4.70
2023-02-16T17:21:44.924Z,4.70
2023-02-16T17:24:11.753Z,4.70
2023-02-16T17:26:38.768Z,4.70
2023-02-16T17:29:06.894Z,4.60
2023-02-16T17:31:34.672Z,4.70
2023-02-16T17:34:02.685Z,4.70
2023-02-16T17:36:29.688Z,4.70
2023-02-16T17:38:56.587Z,4.60
2023-02-16T17:41:28.964Z,4.60
2023-02-16T17:43:56.128Z,4.50
2023-02-16T17:46:23.484Z,4.50
2023-02-16T17:48:53.930Z,4.50
2023-02-16T17:51:24.687Z,4.50
2023-02-16T17:53:51.953Z,4.50
2023-02-16T17:56:21.847Z,4.50
2023-02-16T17:58:51.297Z,4.50
2023-02-16T18:01:19.130Z,4.50
2023-02-16T18:03:46.422Z,4.50
2023-02-16T18:06:15.785Z,4.50
2023-02-16T18:08:43.030Z,4.60
2023-02-16T18:11:10.240Z,4.50
2023-02-16T18:13:37.980Z,4.50
2023-02-16T18:16:07.153Z,4.60
2023-02-16T18:18:36.910Z,4.60
2023-02-16T18:21:04.024Z,4.50
2023-02-16T18:23:31.312Z,4.50
2023-02-16T18:25:58.285Z,4.60
2023-02-16T18:28:31.376Z,4.60
2023-02-16T18:30:58.923Z,4.60
2023-02-16T18:33:26.382Z,4.70
2023-02-16T18:35:55.483Z,4.70
2023-02-16T18:38:23.311Z,4.70
2023-02-16T18:40:51.836Z,4.70
2023-02-16T18:43:18.949Z,4.60
2023-02-16T18:45:45.811Z,4.60
2023-02-16T18:48:13.394Z,4.60
2023-02-16T18:50:40.564Z,4.60
2023-02-16T18:53:07.845Z,4.60
2023-02-16T18:55:35.236Z,4.60
2023-02-16T18:58:08.268Z,4.70
2023-02-16T19:00:36.968Z,4.70
2023-02-16T19:03:04.850Z,4.70
2023-02-16T19:05:32.444Z,4.60
2023-02-16T19:07:59.624Z,4.60
2023-02-16T19:10:26.718Z,4.60
2023-02-16T19:12:53.901Z,4.60
2023-02-16T19:15:20.960Z,4.60
2023-02-16T19:17:48.152Z,4.50
2023-02-16T19:20:18.242Z,4.40
2023-02-16T19:22:48.867Z,4.40
2023-02-16T19:25:16.304Z,4.40
2023-02-16T19:27:43.998Z,4.40
2023-02-16T19:30:12.508Z,4.40
2023-02-16T19:32:41.293Z,4.40
2023-02-16T19:35:12.016Z,4.30
2023-02-16T19:37:39.078Z,4.40
2023-02-16T19:40:08.518Z,4.40
2023-02-16T19:42:35.647Z,4.40
2023-02-16T19:45:02.889Z,4.40
2023-02-16T19:47:31.009Z,4.50
2023-02-16T19:49:58.778Z,4.50
2023-02-16T19:52:25.614Z,4.50
2023-02-16T19:54:52.749Z,4.50
2023-02-16T19:57:20.578Z,4.40
2023-02-16T19:59:47.541Z,4.40
2023-02-16T20:02:15.619Z,4.30
2023-02-16T20:04:44.047Z,4.30
2023-02-16T20:07:11.399Z,4.40
2023-02-16T20:09:38.550Z,4.30
2023-02-16T20:12:06.245Z,4.30
2023-02-16T20:14:33.362Z,4.30
2023-02-16T20:17:00.293Z,4.30
2023-02-16T20:19:27.550Z,4.20
2023-02-16T20:21:54.467Z,4.20
2023-02-16T20:24:21.592Z,4.20
2023-02-16T20:26:50.432Z,4.10
2023-02-16T20:29:17.568Z,4.10
2023-02-16T20:31:48.716Z,4.10
2023-02-16T20:34:16.078Z,4.10
2023-02-16T20:36:43.360Z,4.10
2023-02-16T20:39:10.365Z,4.10
2023-02-16T20:41:37.552Z,4.10
2023-02-16T20:44:05.050Z,4.10
2023-02-16T20:46:32.667Z,4.10
2023-02-16T20:48:59.750Z,4.10
2023-02-16T20:51:26.692Z,4.20
2023-02-16T20:53:53.621Z,4.20
2023-02-16T20:56:25.261Z,4.30
2023-02-16T20:58:55.649Z,4.30
2023-02-16T21:01:43.552Z,4.40
2023-02-16T21:04:11.000Z,4.40
2023-02-16T21:06:38.384Z,4.40
2023-02-16T21:09:08.712Z,4.40
2023-02-16T21:11:37.153Z,4.40
2023-02-16T21:14:05.293Z,4.40
2023-02-16T21:16:32.439Z,4.50
2023-02-16T21:18:59.624Z,4.50
2023-02-16T21:21:26.905Z,4.50
2023-02-16T21:23:55.088Z,4.50
2023-02-16T21:26:24.648Z,4.50
2023-02-16T21:28:51.859Z,4.50
2023-02-16T21:31:24.527Z,4.60
2023-02-16T21:33:51.986Z,4.60
2023-02-16T21:36:24.733Z,4.60
2023-02-16T21:38:51.844Z,4.60
2023-02-16T21:41:25.717Z,4.70
2023-02-16T21:44:07.655Z,4.70
2023-02-16T21:46:37.489Z,4.70
2023-02-16T21:49:05.896Z,4.70
2023-02-16T21:51:38.056Z,4.70
2023-02-16T21:54:07.114Z,4.70
2023-02-16T21:56:52.857Z,4.70
2023-02-16T21:59:21.866Z,4.70
2023-02-16T22:01:51.245Z,4.80
2023-02-16T22:04:21.151Z,4.80
2023-02-16T22:06:50.003Z,4.80
2023-02-16T22:09:20.113Z,4.90
2023-02-16T22:11:47.674Z,4.90
2023-02-16T22:14:15.038Z,4.80
2023-02-16T22:16:44.523Z,4.80
2023-02-16T22:19:14.130Z,4.90
2023-02-16T22:21:42.999Z,4.90
2023-02-16T22:24:13.518Z,4.90
2023-02-16T22:26:40.955Z,4.90
2023-02-16T22:29:08.903Z,4.90
2023-02-16T22:31:36.153Z,4.90
2023-02-16T22:34:05.665Z,4.90
2023-02-16T22:36:33.665Z,4.90
2023-02-16T22:39:00.637Z,4.90
2023-02-16T22:41:27.652Z,4.90
2023-02-16T22:43:55.572Z,4.90
2023-02-16T22:46:23.972Z,4.90
2023-02-16T22:48:51.256Z,4.90
2023-02-16T22:51:19.264Z,5.00
2023-02-16T22:53:47.010Z,5.00
2023-02-16T22:56:16.191Z,5.00
2023-02-16T22:58:43.164Z,5.00
2023-02-16T23:01:18.981Z,5.00
2023-02-16T23:03:48.297Z,5.00
2023-02-16T23:06:21.279Z,5.00
2023-02-16T23:08:57.452Z,4.90
2023-02-16T23:11:25.510Z,4.90
2023-02-16T23:13:52.644Z,4.90
2023-02-16T23:16:22.611Z,4.90
2023-02-16T23:18:50.453Z,5.00
2023-02-16T23:21:21.685Z,5.10
2023-02-16T23:23:51.630Z,5.20
2023-02-16T23:26:20.281Z,5.20
2023-02-16T23:28:51.579Z,5.30
2023-02-16T23:31:19.196Z,5.30
2023-02-16T23:33:46.228Z,5.20
2023-02-16T23:36:13.117Z,5.30
2023-02-16T23:38:40.213Z,5.30
2023-02-16T23:41:11.785Z,5.30
2023-02-16T23:43:39.286Z,5.30
2023-02-16T23:46:07.508Z,5.30
2023-02-16T23:48:35.278Z,5.30
2023-02-16T23:51:02.496Z,5.30
2023-02-16T23:53:29.416Z,5.30
2023-02-16T23:56:05.286Z,5.30
2023-02-16T23:58:41.236Z,5.30
